sensor_id;sensor_type;location;lat;lon;timestamp;temperature;humidity
52879;DHT22;38747;53.140;6.498;2023-12-20T00:01:22;5.60;99.90
52879;DHT22;38747;53.140;6.498;2023-12-20T00:03:48;5.60;99.90
52879;DHT22;38747;53.140;6.498;2023-12-20T00:06:14;5.60;99.90
52879;DHT22;38747;53.140;6.498;2023-12-20T00:08:40;5.60;99.90
52879;DHT22;38747;53.140;6.498;2023-12-20T00:11:06;5.60;99.90
52879;DHT22;38747;53.140;6.498;2023-12-20T00:13:31;5.50;99.90
52879;DHT22;38747;53.140;6.498;2023-12-20T00:15:57;5.50;99.90
52879;DHT22;38747;53.140;6.498;2023-12-20T00:18:23;5.50;99.90
52879;DHT22;38747;53.140;6.498;2023-12-20T00:20:49;5.50;99.90
52879;DHT22;38747;53.140;6.498;2023-12-20T00:23:15;5.40;99.90
52879;DHT22;38747;53.140;6.498;2023-12-20T00:25:40;5.40;99.90
52879;DHT22;38747;53.140;6.498;2023-12-20T00:28:06;5.40;99.90
52879;DHT22;38747;53.140;6.498;2023-12-20T00:30:32;5.40;99.90
52879;DHT22;38747;53.140;6.498;2023-12-20T00:32:58;5.40;99.90
52879;DHT22;38747;53.140;6.498;2023-12-20T00:35:24;5.40;99.90
52879;DHT22;38747;53.140;6.498;2023-12-20T00:37:49;5.40;99.90
52879;DHT22;38747;53.140;6.498;2023-12-20T00:40:15;5.30;99.90
52879;DHT22;38747;53.140;6.498;2023-12-20T00:42:41;5.30;99.90
52879;DHT22;38747;53.140;6.498;2023-12-20T00:45:07;5.30;99.90
52879;DHT22;38747;53.140;6.498;2023-12-20T00:47:33;5.40;99.90
52879;DHT22;38747;53.140;6.498;2023-12-20T00:49:59;5.40;99.90
52879;DHT22;38747;53.140;6.498;2023-12-20T00:52:24;5.40;99.90
52879;DHT22;38747;53.140;6.498;2023-12-20T00:54:50;5.30;99.90
52879;DHT22;38747;53.140;6.498;2023-12-20T00:57:19;5.40;99.90
52879;DHT22;38747;53.140;6.498;2023-12-20T00:59:45;5.40;99.90
52879;DHT22;38747;53.140;6.498;2023-12-20T01:02:11;5.40;99.90
52879;DHT22;38747;53.140;6.498;2023-12-20T01:04:37;5.30;99.90
52879;DHT22;38747;53.140;6.498;2023-12-20T01:07:03;5.40;99.90
52879;DHT22;38747;53.140;6.498;2023-12-20T01:09:28;5.40;99.90
52879;DHT22;38747;53.140;6.498;2023-12-20T01:11:54;5.30;99.90
52879;DHT22;38747;53.140;6.498;2023-12-20T01:14:20;5.40;99.90
52879;DHT22;38747;53.140;6.498;2023-12-20T01:16:46;5.40;99.90
52879;DHT22;38747;53.140;6.498;2023-12-20T01:19:12;5.50;99.90
52879;DHT22;38747;53.140;6.498;2023-12-20T01:21:39;5.50;99.90
52879;DHT22;38747;53.140;6.498;2023-12-20T01:24:04;5.50;99.90
52879;DHT22;38747;53.140;6.498;2023-12-20T01:26:30;5.50;99.90
52879;DHT22;38747;53.140;6.498;2023-12-20T01:28:55;5.50;99.90
52879;DHT22;38747;53.140;6.498;2023-12-20T01:31:21;5.40;99.90
52879;DHT22;38747;53.140;6.498;2023-12-20T01:33:47;5.50;99.90
52879;DHT22;38747;53.140;6.498;2023-12-20T01:36:12;5.50;99.90
52879;DHT22;38747;53.140;6.498;2023-12-20T01:38:38;5.60;99.90
52879;DHT22;38747;53.140;6.498;2023-12-20T01:41:07;5.60;99.90
52879;DHT22;38747;53.140;6.498;2023-12-20T01:43:33;5.70;99.90
52879;DHT22;38747;53.140;6.498;2023-12-20T01:45:59;5.70;99.90
52879;DHT22;38747;53.140;6.498;2023-12-20T01:48:26;5.80;99.90
52879;DHT22;38747;53.140;6.498;2023-12-20T01:50:53;5.80;99.90
52879;DHT22;38747;53.140;6.498;2023-12-20T01:53:21;5.70;99.90
52879;DHT22;38747;53.140;6.498;2023-12-20T01:55:47;5.70;99.90
52879;DHT22;38747;53.140;6.498;2023-12-20T01:58:14;5.70;99.90
52879;DHT22;38747;53.140;6.498;2023-12-20T02:00:40;5.60;99.90
52879;DHT22;38747;53.140;6.498;2023-12-20T02:03:09;5.60;99.90
52879;DHT22;38747;53.140;6.498;2023-12-20T02:05:36;5.50;99.90
52879;DHT22;38747;53.140;6.498;2023-12-20T02:08:04;5.40;99.90
52879;DHT22;38747;53.140;6.498;2023-12-20T02:10:31;5.40;99.90
52879;DHT22;38747;53.140;6.498;2023-12-20T02:12:57;5.50;99.90
52879;DHT22;38747;53.140;6.498;2023-12-20T02:15:22;5.40;99.90
52879;DHT22;38747;53.140;6.498;2023-12-20T02:17:49;5.40;99.90
52879;DHT22;38747;53.140;6.498;2023-12-20T02:20:15;5.50;99.90
52879;DHT22;38747;53.140;6.498;2023-12-20T02:22:40;5.50;99.90
52879;DHT22;38747;53.140;6.498;2023-12-20T02:25:06;5.60;99.90
52879;DHT22;38747;53.140;6.498;2023-12-20T02:27:32;5.60;99.90
52879;DHT22;38747;53.140;6.498;2023-12-20T02:29:57;5.70;99.90
52879;DHT22;38747;53.140;6.498;2023-12-20T02:32:24;5.70;99.90
52879;DHT22;38747;53.140;6.498;2023-12-20T02:34:51;5.60;99.90
52879;DHT22;38747;53.140;6.498;2023-12-20T02:37:17;5.60;99.90
52879;DHT22;38747;53.140;6.498;2023-12-20T02:39:42;5.60;99.90
52879;DHT22;38747;53.140;6.498;2023-12-20T02:42:08;5.50;99.90
52879;DHT22;38747;53.140;6.498;2023-12-20T02:44:34;5.60;99.90
52879;DHT22;38747;53.140;6.498;2023-12-20T02:46:59;5.50;99.90
52879;DHT22;38747;53.140;6.498;2023-12-20T02:49:25;5.60;99.90
52879;DHT22;38747;53.140;6.498;2023-12-20T02:51:50;5.60;99.90
52879;DHT22;38747;53.140;6.498;2023-12-20T02:54:16;5.60;99.90
52879;DHT22;38747;53.140;6.498;2023-12-20T02:56:42;5.60;99.90
52879;DHT22;38747;53.140;6.498;2023-12-20T02:59:07;5.60;99.90
52879;DHT22;38747;53.140;6.498;2023-12-20T03:01:34;5.70;99.90
52879;DHT22;38747;53.140;6.498;2023-12-20T03:04:00;5.70;99.90
52879;DHT22;38747;53.140;6.498;2023-12-20T03:06:26;5.70;99.90
52879;DHT22;38747;53.140;6.498;2023-12-20T03:08:52;5.80;99.90
52879;DHT22;38747;53.140;6.498;2023-12-20T03:11:18;5.80;99.90
52879;DHT22;38747;53.140;6.498;2023-12-20T03:13:44;5.80;99.90
52879;DHT22;38747;53.140;6.498;2023-12-20T03:16:10;5.70;99.90
52879;DHT22;38747;53.140;6.498;2023-12-20T03:18:36;5.70;99.90
52879;DHT22;38747;53.140;6.498;2023-12-20T03:21:02;5.70;99.90
52879;DHT22;38747;53.140;6.498;2023-12-20T03:23:29;5.80;99.90
52879;DHT22;38747;53.140;6.498;2023-12-20T03:25:56;5.80;99.90
52879;DHT22;38747;53.140;6.498;2023-12-20T03:28:22;5.90;99.90
52879;DHT22;38747;53.140;6.498;2023-12-20T03:30:48;5.90;99.90
52879;DHT22;38747;53.140;6.498;2023-12-20T03:33:14;5.90;99.90
52879;DHT22;38747;53.140;6.498;2023-12-20T03:35:39;5.90;99.90
52879;DHT22;38747;53.140;6.498;2023-12-20T03:38:05;5.80;99.90
52879;DHT22;38747;53.140;6.498;2023-12-20T03:40:31;5.80;99.90
52879;DHT22;38747;53.140;6.498;2023-12-20T03:42:56;5.80;99.90
52879;DHT22;38747;53.140;6.498;2023-12-20T03:45:22;5.70;99.90
52879;DHT22;38747;53.140;6.498;2023-12-20T03:47:47;5.70;99.90
52879;DHT22;38747;53.140;6.498;2023-12-20T03:50:14;5.70;99.90
52879;DHT22;38747;53.140;6.498;2023-12-20T03:52:39;5.70;99.90
52879;DHT22;38747;53.140;6.498;2023-12-20T03:55:05;5.80;99.90
52879;DHT22;38747;53.140;6.498;2023-12-20T03:57:31;5.80;99.90
52879;DHT22;38747;53.140;6.498;2023-12-20T03:59:56;5.80;99.90
52879;DHT22;38747;53.140;6.498;2023-12-20T04:02:22;5.80;99.90
52879;DHT22;38747;53.140;6.498;2023-12-20T04:04:47;5.90;99.90
52879;DHT22;38747;53.140;6.498;2023-12-20T04:07:13;5.90;99.90
52879;DHT22;38747;53.140;6.498;2023-12-20T04:09:40;5.90;99.90
52879;DHT22;38747;53.140;6.498;2023-12-20T04:12:06;5.90;99.90
52879;DHT22;38747;53.140;6.498;2023-12-20T04:14:35;5.90;99.90
52879;DHT22;38747;53.140;6.498;2023-12-20T04:17:00;6.00;99.90
52879;DHT22;38747;53.140;6.498;2023-12-20T04:19:26;6.00;99.90
52879;DHT22;38747;53.140;6.498;2023-12-20T04:21:52;6.10;99.90
52879;DHT22;38747;53.140;6.498;2023-12-20T04:24:17;6.10;99.90
52879;DHT22;38747;53.140;6.498;2023-12-20T04:26:43;6.10;99.90
52879;DHT22;38747;53.140;6.498;2023-12-20T04:29:12;6.10;99.90
52879;DHT22;38747;53.140;6.498;2023-12-20T04:31:37;6.20;99.90
52879;DHT22;38747;53.140;6.498;2023-12-20T04:34:03;6.10;99.90
52879;DHT22;38747;53.140;6.498;2023-12-20T04:36:29;6.20;99.90
52879;DHT22;38747;53.140;6.498;2023-12-20T04:38:55;6.10;99.90
52879;DHT22;38747;53.140;6.498;2023-12-20T04:41:21;6.10;99.90
52879;DHT22;38747;53.140;6.498;2023-12-20T04:43:46;6.10;99.90
52879;DHT22;38747;53.140;6.498;2023-12-20T04:46:12;6.10;99.90
52879;DHT22;38747;53.140;6.498;2023-12-20T04:48:38;6.10;99.90
52879;DHT22;38747;53.140;6.498;2023-12-20T04:51:04;6.10;99.90
52879;DHT22;38747;53.140;6.498;2023-12-20T04:53:30;6.20;99.90
52879;DHT22;38747;53.140;6.498;2023-12-20T04:55:55;6.20;99.90
52879;DHT22;38747;53.140;6.498;2023-12-20T04:58:21;6.30;99.90
52879;DHT22;38747;53.140;6.498;2023-12-20T05:00:46;6.40;99.90
52879;DHT22;38747;53.140;6.498;2023-12-20T05:03:12;6.40;99.90
52879;DHT22;38747;53.140;6.498;2023-12-20T05:05:38;6.40;99.90
52879;DHT22;38747;53.140;6.498;2023-12-20T05:08:04;6.40;99.90
52879;DHT22;38747;53.140;6.498;2023-12-20T05:10:30;6.40;99.90
52879;DHT22;38747;53.140;6.498;2023-12-20T05:12:56;6.40;99.90
52879;DHT22;38747;53.140;6.498;2023-12-20T05:15:21;6.40;99.90
52879;DHT22;38747;53.140;6.498;2023-12-20T05:17:47;6.40;99.90
52879;DHT22;38747;53.140;6.498;2023-12-20T05:20:12;6.50;99.90
52879;DHT22;38747;53.140;6.498;2023-12-20T05:22:38;6.50;99.90
52879;DHT22;38747;53.140;6.498;2023-12-20T05:25:07;6.50;99.90
52879;DHT22;38747;53.140;6.498;2023-12-20T05:27:33;6.60;99.90
52879;DHT22;38747;53.140;6.498;2023-12-20T05:29:58;6.50;99.90
52879;DHT22;38747;53.140;6.498;2023-12-20T05:32:24;6.60;99.90
52879;DHT22;38747;53.140;6.498;2023-12-20T05:34:49;6.60;99.90
52879;DHT22;38747;53.140;6.498;2023-12-20T05:37:15;6.60;99.90
52879;DHT22;38747;53.140;6.498;2023-12-20T05:39:40;6.60;99.90
52879;DHT22;38747;53.140;6.498;2023-12-20T05:42:06;6.60;99.90
52879;DHT22;38747;53.140;6.498;2023-12-20T05:44:32;6.70;99.90
52879;DHT22;38747;53.140;6.498;2023-12-20T05:47:00;6.70;99.90
52879;DHT22;38747;53.140;6.498;2023-12-20T05:49:26;6.70;99.90
52879;DHT22;38747;53.140;6.498;2023-12-20T05:51:52;6.70;99.90
52879;DHT22;38747;53.140;6.498;2023-12-20T05:54:17;6.70;99.90
52879;DHT22;38747;53.140;6.498;2023-12-20T05:56:43;6.70;99.90
52879;DHT22;38747;53.140;6.498;2023-12-20T05:59:08;6.70;99.90
52879;DHT22;38747;53.140;6.498;2023-12-20T06:01:34;6.70;99.90
52879;DHT22;38747;53.140;6.498;2023-12-20T06:04:00;6.80;99.90
52879;DHT22;38747;53.140;6.498;2023-12-20T06:06:25;6.70;99.90
52879;DHT22;38747;53.140;6.498;2023-12-20T06:08:51;6.70;99.90
52879;DHT22;38747;53.140;6.498;2023-12-20T06:11:17;6.70;99.90
52879;DHT22;38747;53.140;6.498;2023-12-20T06:13:42;6.70;99.90
52879;DHT22;38747;53.140;6.498;2023-12-20T06:16:08;6.80;99.90
52879;DHT22;38747;53.140;6.498;2023-12-20T06:18:34;6.80;99.90
52879;DHT22;38747;53.140;6.498;2023-12-20T06:21:00;6.80;99.90
52879;DHT22;38747;53.140;6.498;2023-12-20T06:23:25;6.80;99.90
52879;DHT22;38747;53.140;6.498;2023-12-20T06:25:52;6.80;99.90
52879;DHT22;38747;53.140;6.498;2023-12-20T06:28:18;6.80;99.90
52879;DHT22;38747;53.140;6.498;2023-12-20T06:30:43;6.90;99.90
52879;DHT22;38747;53.140;6.498;2023-12-20T06:33:09;6.90;99.90
52879;DHT22;38747;53.140;6.498;2023-12-20T06:35:36;6.90;99.90
52879;DHT22;38747;53.140;6.498;2023-12-20T06:38:02;6.90;99.90
52879;DHT22;38747;53.140;6.498;2023-12-20T06:40:28;6.90;99.90
52879;DHT22;38747;53.140;6.498;2023-12-20T06:42:53;7.00;99.90
52879;DHT22;38747;53.140;6.498;2023-12-20T06:45:20;7.00;99.90
52879;DHT22;38747;53.140;6.498;2023-12-20T06:47:45;7.00;99.90
52879;DHT22;38747;53.140;6.498;2023-12-20T06:50:11;7.00;99.90
52879;DHT22;38747;53.140;6.498;2023-12-20T06:52:36;7.00;99.90
52879;DHT22;38747;53.140;6.498;2023-12-20T06:55:05;7.00;99.90
52879;DHT22;38747;53.140;6.498;2023-12-20T06:57:31;7.00;99.90
52879;DHT22;38747;53.140;6.498;2023-12-20T06:59:57;7.00;99.90
52879;DHT22;38747;53.140;6.498;2023-12-20T07:02:23;7.00;99.90
52879;DHT22;38747;53.140;6.498;2023-12-20T07:04:48;7.00;99.90
52879;DHT22;38747;53.140;6.498;2023-12-20T07:07:14;7.10;99.90
52879;DHT22;38747;53.140;6.498;2023-12-20T07:09:40;7.00;99.90
52879;DHT22;38747;53.140;6.498;2023-12-20T07:12:08;7.00;99.90
52879;DHT22;38747;53.140;6.498;2023-12-20T07:14:34;7.10;99.90
52879;DHT22;38747;53.140;6.498;2023-12-20T07:16:59;7.10;99.90
52879;DHT22;38747;53.140;6.498;2023-12-20T07:19:25;7.10;99.90
52879;DHT22;38747;53.140;6.498;2023-12-20T07:21:50;7.10;99.90
52879;DHT22;38747;53.140;6.498;2023-12-20T07:24:16;7.10;99.90
52879;DHT22;38747;53.140;6.498;2023-12-20T07:26:41;7.10;99.90
52879;DHT22;38747;53.140;6.498;2023-12-20T07:29:09;7.20;99.90
52879;DHT22;38747;53.140;6.498;2023-12-20T07:31:35;7.20;99.90
52879;DHT22;38747;53.140;6.498;2023-12-20T07:34:00;7.20;99.90
52879;DHT22;38747;53.140;6.498;2023-12-20T07:36:26;7.20;99.90
52879;DHT22;38747;53.140;6.498;2023-12-20T07:38:51;7.30;99.90
52879;DHT22;38747;53.140;6.498;2023-12-20T07:41:17;7.30;99.90
52879;DHT22;38747;53.140;6.498;2023-12-20T07:43:46;7.30;99.90
52879;DHT22;38747;53.140;6.498;2023-12-20T07:46:12;7.30;99.90
52879;DHT22;38747;53.140;6.498;2023-12-20T07:48:37;7.30;99.90
52879;DHT22;38747;53.140;6.498;2023-12-20T07:51:06;7.30;99.90
52879;DHT22;38747;53.140;6.498;2023-12-20T07:53:33;7.30;99.90
52879;DHT22;38747;53.140;6.498;2023-12-20T07:55:59;7.40;99.90
52879;DHT22;38747;53.140;6.498;2023-12-20T07:58:25;7.40;99.90
52879;DHT22;38747;53.140;6.498;2023-12-20T08:00:51;7.40;99.90
52879;DHT22;38747;53.140;6.498;2023-12-20T08:03:16;7.40;99.90
52879;DHT22;38747;53.140;6.498;2023-12-20T08:05:42;7.40;99.90
52879;DHT22;38747;53.140;6.498;2023-12-20T08:08:07;7.40;99.90
52879;DHT22;38747;53.140;6.498;2023-12-20T08:10:33;7.40;99.90
52879;DHT22;38747;53.140;6.498;2023-12-20T08:12:59;7.40;99.90
52879;DHT22;38747;53.140;6.498;2023-12-20T08:15:24;7.40;99.90
52879;DHT22;38747;53.140;6.498;2023-12-20T08:17:50;7.40;99.90
52879;DHT22;38747;53.140;6.498;2023-12-20T08:20:17;7.40;99.90
52879;DHT22;38747;53.140;6.498;2023-12-20T08:22:42;7.40;99.90
52879;DHT22;38747;53.140;6.498;2023-12-20T08:25:08;7.30;99.90
52879;DHT22;38747;53.140;6.498;2023-12-20T08:27:40;7.30;99.90
52879;DHT22;38747;53.140;6.498;2023-12-20T08:30:08;7.30;99.90
52879;DHT22;38747;53.140;6.498;2023-12-20T08:32:35;7.30;99.90
52879;DHT22;38747;53.140;6.498;2023-12-20T08:35:01;7.30;99.90
52879;DHT22;38747;53.140;6.498;2023-12-20T08:37:28;7.20;99.90
52879;DHT22;38747;53.140;6.498;2023-12-20T08:39:55;7.20;99.90
52879;DHT22;38747;53.140;6.498;2023-12-20T08:42:21;7.30;99.90
52879;DHT22;38747;53.140;6.498;2023-12-20T08:44:46;7.30;99.90
52879;DHT22;38747;53.140;6.498;2023-12-20T08:47:12;7.30;99.90
52879;DHT22;38747;53.140;6.498;2023-12-20T08:49:39;7.40;99.90
52879;DHT22;38747;53.140;6.498;2023-12-20T08:52:05;7.50;99.90
52879;DHT22;38747;53.140;6.498;2023-12-20T08:54:30;7.50;99.90
52879;DHT22;38747;53.140;6.498;2023-12-20T08:56:56;7.50;99.90
52879;DHT22;38747;53.140;6.498;2023-12-20T08:59:21;7.40;99.90
52879;DHT22;38747;53.140;6.498;2023-12-20T09:01:47;7.40;99.90
52879;DHT22;38747;53.140;6.498;2023-12-20T09:04:13;7.30;99.90
52879;DHT22;38747;53.140;6.498;2023-12-20T09:06:39;7.10;99.90
52879;DHT22;38747;53.140;6.498;2023-12-20T09:09:04;7.00;99.90
52879;DHT22;38747;53.140;6.498;2023-12-20T09:11:34;6.60;99.90
52879;DHT22;38747;53.140;6.498;2023-12-20T09:13:59;6.40;99.90
52879;DHT22;38747;53.140;6.498;2023-12-20T09:16:25;6.20;99.90
52879;DHT22;38747;53.140;6.498;2023-12-20T09:18:50;6.00;99.90
52879;DHT22;38747;53.140;6.498;2023-12-20T09:21:17;6.00;99.90
52879;DHT22;38747;53.140;6.498;2023-12-20T09:23:42;5.90;99.90
52879;DHT22;38747;53.140;6.498;2023-12-20T09:26:08;5.80;99.90
52879;DHT22;38747;53.140;6.498;2023-12-20T09:28:34;5.80;99.90
52879;DHT22;38747;53.140;6.498;2023-12-20T09:31:03;5.70;99.90
52879;DHT22;38747;53.140;6.498;2023-12-20T09:33:29;5.60;99.90
52879;DHT22;38747;53.140;6.498;2023-12-20T09:35:54;5.50;99.90
52879;DHT22;38747;53.140;6.498;2023-12-20T09:38:21;5.60;99.90
52879;DHT22;38747;53.140;6.498;2023-12-20T09:40:48;5.60;99.90
52879;DHT22;38747;53.140;6.498;2023-12-20T09:43:15;5.60;99.90
52879;DHT22;38747;53.140;6.498;2023-12-20T09:45:42;5.60;99.90
52879;DHT22;38747;53.140;6.498;2023-12-20T09:48:10;5.60;99.90
52879;DHT22;38747;53.140;6.498;2023-12-20T09:50:36;5.70;99.90
52879;DHT22;38747;53.140;6.498;2023-12-20T09:53:02;5.80;99.90
52879;DHT22;38747;53.140;6.498;2023-12-20T09:55:30;5.80;99.90
52879;DHT22;38747;53.140;6.498;2023-12-20T09:57:57;5.90;99.90
52879;DHT22;38747;53.140;6.498;2023-12-20T10:00:23;5.90;99.90
52879;DHT22;38747;53.140;6.498;2023-12-20T10:02:56;5.90;99.90
52879;DHT22;38747;53.140;6.498;2023-12-20T10:05:27;5.80;99.90
52879;DHT22;38747;53.140;6.498;2023-12-20T10:07:52;5.80;99.90
52879;DHT22;38747;53.140;6.498;2023-12-20T10:10:18;5.90;99.90
52879;DHT22;38747;53.140;6.498;2023-12-20T10:15:28;6.00;99.90
52879;DHT22;38747;53.140;6.498;2023-12-20T10:17:54;6.00;99.90
52879;DHT22;38747;53.140;6.498;2023-12-20T10:20:20;6.00;99.90
52879;DHT22;38747;53.140;6.498;2023-12-20T10:22:46;6.10;99.90
52879;DHT22;38747;53.140;6.498;2023-12-20T10:25:12;6.10;99.90
52879;DHT22;38747;53.140;6.498;2023-12-20T10:27:38;6.00;99.90
52879;DHT22;38747;53.140;6.498;2023-12-20T10:30:04;6.10;99.90
52879;DHT22;38747;53.140;6.498;2023-12-20T10:32:31;6.10;99.90
52879;DHT22;38747;53.140;6.498;2023-12-20T10:34:57;6.10;99.90
52879;DHT22;38747;53.140;6.498;2023-12-20T10:37:22;6.10;99.90
52879;DHT22;38747;53.140;6.498;2023-12-20T10:39:53;6.10;99.90
52879;DHT22;38747;53.140;6.498;2023-12-20T10:42:22;6.10;99.90
52879;DHT22;38747;53.140;6.498;2023-12-20T10:44:49;6.20;99.90
52879;DHT22;38747;53.140;6.498;2023-12-20T10:47:16;6.20;99.90
52879;DHT22;38747;53.140;6.498;2023-12-20T10:49:43;6.30;99.90
52879;DHT22;38747;53.140;6.498;2023-12-20T10:52:11;6.30;99.90
52879;DHT22;38747;53.140;6.498;2023-12-20T10:54:37;6.20;99.90
52879;DHT22;38747;53.140;6.498;2023-12-20T10:57:05;6.20;99.90
52879;DHT22;38747;53.140;6.498;2023-12-20T10:59:33;6.20;99.90
52879;DHT22;38747;53.140;6.498;2023-12-20T11:02:03;6.10;99.90
52879;DHT22;38747;53.140;6.498;2023-12-20T11:04:53;6.20;99.90
52879;DHT22;38747;53.140;6.498;2023-12-20T11:07:32;6.20;99.90
52879;DHT22;38747;53.140;6.498;2023-12-20T11:10:10;6.30;99.90
52879;DHT22;38747;53.140;6.498;2023-12-20T11:12:46;6.30;99.90
52879;DHT22;38747;53.140;6.498;2023-12-20T11:15:13;6.40;99.90
52879;DHT22;38747;53.140;6.498;2023-12-20T11:17:40;6.40;99.90
52879;DHT22;38747;53.140;6.498;2023-12-20T11:20:08;6.50;99.90
52879;DHT22;38747;53.140;6.498;2023-12-20T11:22:36;6.50;99.90
52879;DHT22;38747;53.140;6.498;2023-12-20T11:25:08;6.50;99.90
52879;DHT22;38747;53.140;6.498;2023-12-20T11:27:34;6.60;99.90
52879;DHT22;38747;53.140;6.498;2023-12-20T11:30:03;6.60;99.90
52879;DHT22;38747;53.140;6.498;2023-12-20T11:32:33;6.60;99.90
52879;DHT22;38747;53.140;6.498;2023-12-20T11:35:18;6.60;99.90
52879;DHT22;38747;53.140;6.498;2023-12-20T11:37:45;6.60;99.90
52879;DHT22;38747;53.140;6.498;2023-12-20T11:40:17;6.60;99.90
52879;DHT22;38747;53.140;6.498;2023-12-20T11:42:48;6.70;99.90
52879;DHT22;38747;53.140;6.498;2023-12-20T11:45:19;6.70;99.90
52879;DHT22;38747;53.140;6.498;2023-12-20T11:47:47;6.80;99.90
52879;DHT22;38747;53.140;6.498;2023-12-20T11:50:18;6.90;99.90
52879;DHT22;38747;53.140;6.498;2023-12-20T11:52:44;6.90;99.90
52879;DHT22;38747;53.140;6.498;2023-12-20T11:55:09;7.00;99.90
52879;DHT22;38747;53.140;6.498;2023-12-20T11:57:36;6.90;99.90
52879;DHT22;38747;53.140;6.498;2023-12-20T12:00:03;7.00;99.90
52879;DHT22;38747;53.140;6.498;2023-12-20T12:02:28;7.00;99.90
52879;DHT22;38747;53.140;6.498;2023-12-20T12:04:55;7.00;99.90
52879;DHT22;38747;53.140;6.498;2023-12-20T12:07:22;7.00;99.90
52879;DHT22;38747;53.140;6.498;2023-12-20T12:09:48;7.00;99.90
52879;DHT22;38747;53.140;6.498;2023-12-20T12:12:14;7.10;99.90
52879;DHT22;38747;53.140;6.498;2023-12-20T12:14:40;7.10;99.90
52879;DHT22;38747;53.140;6.498;2023-12-20T12:17:13;7.10;99.90
52879;DHT22;38747;53.140;6.498;2023-12-20T12:19:40;7.10;99.90
52879;DHT22;38747;53.140;6.498;2023-12-20T12:22:13;7.10;99.90
52879;DHT22;38747;53.140;6.498;2023-12-20T12:24:44;7.10;99.90
52879;DHT22;38747;53.140;6.498;2023-12-20T12:27:10;7.10;99.90
52879;DHT22;38747;53.140;6.498;2023-12-20T12:29:36;7.10;99.90
52879;DHT22;38747;53.140;6.498;2023-12-20T12:32:06;7.10;99.90
52879;DHT22;38747;53.140;6.498;2023-12-20T12:34:33;7.00;99.90
52879;DHT22;38747;53.140;6.498;2023-12-20T12:37:03;7.10;99.90
52879;DHT22;38747;53.140;6.498;2023-12-20T12:39:29;7.00;99.90
52879;DHT22;38747;53.140;6.498;2023-12-20T12:41:55;7.00;99.90
52879;DHT22;38747;53.140;6.498;2023-12-20T12:44:21;7.00;99.90
52879;DHT22;38747;53.140;6.498;2023-12-20T12:46:49;6.90;99.90
52879;DHT22;38747;53.140;6.498;2023-12-20T12:49:20;7.00;99.90
52879;DHT22;38747;53.140;6.498;2023-12-20T12:51:47;6.90;99.90
52879;DHT22;38747;53.140;6.498;2023-12-20T12:54:12;7.00;99.90
52879;DHT22;38747;53.140;6.498;2023-12-20T12:56:39;7.00;99.90
52879;DHT22;38747;53.140;6.498;2023-12-20T12:59:05;7.10;99.90
52879;DHT22;38747;53.140;6.498;2023-12-20T13:01:31;7.10;99.90
52879;DHT22;38747;53.140;6.498;2023-12-20T13:03:57;7.10;99.90
52879;DHT22;38747;53.140;6.498;2023-12-20T13:06:22;7.20;99.90
52879;DHT22;38747;53.140;6.498;2023-12-20T13:08:48;7.20;99.90
52879;DHT22;38747;53.140;6.498;2023-12-20T13:11:14;7.20;99.90
52879;DHT22;38747;53.140;6.498;2023-12-20T13:13:42;7.10;99.90
52879;DHT22;38747;53.140;6.498;2023-12-20T13:16:08;7.20;99.90
52879;DHT22;38747;53.140;6.498;2023-12-20T13:18:34;7.10;99.90
52879;DHT22;38747;53.140;6.498;2023-12-20T13:20:59;7.00;99.90
52879;DHT22;38747;53.140;6.498;2023-12-20T13:23:25;7.00;99.90
52879;DHT22;38747;53.140;6.498;2023-12-20T13:25:50;6.90;99.90
52879;DHT22;38747;53.140;6.498;2023-12-20T13:28:16;6.90;99.90
52879;DHT22;38747;53.140;6.498;2023-12-20T13:30:42;6.80;99.90
52879;DHT22;38747;53.140;6.498;2023-12-20T13:33:09;6.80;99.90
52879;DHT22;38747;53.140;6.498;2023-12-20T13:35:35;6.70;99.90
52879;DHT22;38747;53.140;6.498;2023-12-20T13:38:01;6.70;99.90
52879;DHT22;38747;53.140;6.498;2023-12-20T13:40:26;6.70;99.90
52879;DHT22;38747;53.140;6.498;2023-12-20T13:42:53;6.70;99.90
52879;DHT22;38747;53.140;6.498;2023-12-20T13:45:20;6.70;99.90
52879;DHT22;38747;53.140;6.498;2023-12-20T13:47:46;6.70;99.90
52879;DHT22;38747;53.140;6.498;2023-12-20T13:50:11;6.60;99.90
52879;DHT22;38747;53.140;6.498;2023-12-20T13:52:37;6.60;99.90
52879;DHT22;38747;53.140;6.498;2023-12-20T13:55:03;6.50;99.90
52879;DHT22;38747;53.140;6.498;2023-12-20T13:57:33;6.50;99.90
52879;DHT22;38747;53.140;6.498;2023-12-20T13:59:59;6.50;99.90
52879;DHT22;38747;53.140;6.498;2023-12-20T14:02:25;6.50;99.90
52879;DHT22;38747;53.140;6.498;2023-12-20T14:04:52;6.50;99.90
52879;DHT22;38747;53.140;6.498;2023-12-20T14:07:18;6.50;99.90
52879;DHT22;38747;53.140;6.498;2023-12-20T14:09:44;6.50;99.90
52879;DHT22;38747;53.140;6.498;2023-12-20T14:12:12;6.40;99.90
52879;DHT22;38747;53.140;6.498;2023-12-20T14:14:38;6.40;99.90
52879;DHT22;38747;53.140;6.498;2023-12-20T14:17:03;6.40;99.90
52879;DHT22;38747;53.140;6.498;2023-12-20T14:19:32;6.40;99.90
52879;DHT22;38747;53.140;6.498;2023-12-20T14:21:57;6.40;99.90
52879;DHT22;38747;53.140;6.498;2023-12-20T14:24:26;6.40;99.90
52879;DHT22;38747;53.140;6.498;2023-12-20T14:26:55;6.30;99.90
52879;DHT22;38747;53.140;6.498;2023-12-20T14:29:21;6.30;99.90
52879;DHT22;38747;53.140;6.498;2023-12-20T14:31:46;6.30;99.90
52879;DHT22;38747;53.140;6.498;2023-12-20T14:34:12;6.30;99.90
52879;DHT22;38747;53.140;6.498;2023-12-20T14:36:37;6.30;99.90
52879;DHT22;38747;53.140;6.498;2023-12-20T14:39:03;6.20;99.90
52879;DHT22;38747;53.140;6.498;2023-12-20T14:41:30;6.20;99.90
52879;DHT22;38747;53.140;6.498;2023-12-20T14:43:58;6.20;99.90
52879;DHT22;38747;53.140;6.498;2023-12-20T14:46:25;6.20;99.90
52879;DHT22;38747;53.140;6.498;2023-12-20T14:48:50;6.20;99.90
52879;DHT22;38747;53.140;6.498;2023-12-20T14:51:16;6.20;99.90
52879;DHT22;38747;53.140;6.498;2023-12-20T14:53:41;6.20;99.90
52879;DHT22;38747;53.140;6.498;2023-12-20T14:56:07;6.10;99.90
52879;DHT22;38747;53.140;6.498;2023-12-20T14:58:34;6.10;99.90
52879;DHT22;38747;53.140;6.498;2023-12-20T15:01:01;6.10;99.90
52879;DHT22;38747;53.140;6.498;2023-12-20T15:03:27;6.10;99.90
52879;DHT22;38747;53.140;6.498;2023-12-20T15:05:54;6.10;99.90
52879;DHT22;38747;53.140;6.498;2023-12-20T15:08:19;6.10;99.90
52879;DHT22;38747;53.140;6.498;2023-12-20T15:10:46;6.00;99.90
52879;DHT22;38747;53.140;6.498;2023-12-20T15:13:12;6.00;99.90
52879;DHT22;38747;53.140;6.498;2023-12-20T15:15:38;6.10;99.90
52879;DHT22;38747;53.140;6.498;2023-12-20T15:18:03;6.10;99.90
52879;DHT22;38747;53.140;6.498;2023-12-20T15:20:29;6.00;99.90
52879;DHT22;38747;53.140;6.498;2023-12-20T15:22:55;6.00;99.90
52879;DHT22;38747;53.140;6.498;2023-12-20T15:25:24;6.00;99.90
52879;DHT22;38747;53.140;6.498;2023-12-20T15:27:50;6.00;99.90
52879;DHT22;38747;53.140;6.498;2023-12-20T15:30:19;6.00;99.90
52879;DHT22;38747;53.140;6.498;2023-12-20T15:32:45;6.00;99.90
52879;DHT22;38747;53.140;6.498;2023-12-20T15:35:11;6.00;99.90
52879;DHT22;38747;53.140;6.498;2023-12-20T15:37:38;6.00;99.90
52879;DHT22;38747;53.140;6.498;2023-12-20T15:40:06;6.00;99.90
52879;DHT22;38747;53.140;6.498;2023-12-20T15:42:33;6.00;99.90